createdAt,value
2018-12-06T00:01:00.445Z,10.30
2018-12-06T00:03:27.165Z,9.65
2018-12-06T00:05:53.883Z,10.85
2018-12-06T00:08:20.586Z,12.30
2018-12-06T00:10:47.300Z,11.53
2018-12-06T00:13:14.112Z,9.95
2018-12-06T00:15:40.805Z,9.98
2018-12-06T00:18:07.508Z,10.60
2018-12-06T00:20:34.221Z,12.60
2018-12-06T00:23:00.917Z,11.80
2018-12-06T00:25:27.634Z,10.80
2018-12-06T00:27:54.337Z,9.93
2018-12-06T00:30:27.128Z,10.20
2018-12-06T00:32:53.823Z,10.20
2018-12-06T00:35:20.527Z,9.95
2018-12-06T00:37:47.244Z,9.78
2018-12-06T00:40:13.929Z,8.55
2018-12-06T00:42:40.613Z,9.65
2018-12-06T00:45:07.327Z,9.20
2018-12-06T00:47:34.019Z,9.58
2018-12-06T00:50:00.704Z,8.98
2018-12-06T00:52:27.422Z,10.43
2018-12-06T00:54:54.122Z,10.40
2018-12-06T00:57:20.833Z,9.78
2018-12-06T00:59:47.533Z,9.45
2018-12-06T01:02:14.344Z,9.80
2018-12-06T01:04:41.062Z,9.25
2018-12-06T01:07:07.751Z,10.43
2018-12-06T01:09:34.466Z,9.58
2018-12-06T01:12:01.158Z,8.95
2018-12-06T01:14:33.642Z,9.10
2018-12-06T01:17:00.340Z,9.48
2018-12-06T01:19:27.024Z,9.03
2018-12-06T01:21:53.723Z,8.15
2018-12-06T01:24:20.413Z,9.43
2018-12-06T01:26:47.105Z,10.18
2018-12-06T01:29:13.812Z,8.95
2018-12-06T01:31:40.492Z,8.58
2018-12-06T01:34:07.170Z,7.90
2018-12-06T01:36:33.881Z,8.80
2018-12-06T01:39:00.579Z,8.55
2018-12-06T01:41:27.282Z,8.30
2018-12-06T01:43:53.985Z,8.33
2018-12-06T01:46:20.680Z,8.68
2018-12-06T01:48:47.471Z,8.63
2018-12-06T01:51:14.155Z,8.55
2018-12-06T01:53:40.861Z,7.78
2018-12-06T01:56:07.561Z,8.45
2018-12-06T01:58:34.246Z,8.48
2018-12-06T02:01:00.953Z,8.13
2018-12-06T02:03:27.636Z,7.75
2018-12-06T02:05:54.340Z,7.97
2018-12-06T02:08:21.024Z,7.70
2018-12-06T02:10:47.695Z,7.92
2018-12-06T02:13:14.416Z,7.87
2018-12-06T02:15:41.110Z,7.37
2018-12-06T02:18:07.817Z,7.55
2018-12-06T02:20:34.497Z,7.80
2018-12-06T02:23:01.188Z,7.28
2018-12-06T02:25:28.026Z,7.45
2018-12-06T02:27:54.722Z,7.65
2018-12-06T02:30:21.603Z,7.22
2018-12-06T02:32:48.321Z,7.80
2018-12-06T02:35:15.009Z,8.20
2018-12-06T02:37:41.697Z,7.25
2018-12-06T02:40:08.458Z,9.05
2018-12-06T02:42:35.140Z,8.85
2018-12-06T02:45:01.830Z,7.85
2018-12-06T02:47:28.588Z,8.25
2018-12-06T02:49:55.365Z,8.23
2018-12-06T02:52:22.057Z,8.28
2018-12-06T02:54:48.773Z,8.03
2018-12-06T02:57:15.453Z,7.60
2018-12-06T02:59:42.173Z,8.58
2018-12-06T03:02:08.870Z,8.13
2018-12-06T03:04:35.559Z,7.50
2018-12-06T03:07:02.280Z,8.90
2018-12-06T03:09:28.965Z,8.73
2018-12-06T03:11:55.653Z,8.15
2018-12-06T03:14:22.349Z,8.28
2018-12-06T03:16:49.028Z,7.58
2018-12-06T03:19:15.999Z,7.83
2018-12-06T03:21:42.715Z,8.00
2018-12-06T03:24:09.437Z,8.30
2018-12-06T03:26:36.130Z,8.05
2018-12-06T03:29:02.805Z,8.28
2018-12-06T03:31:29.521Z,10.23
2018-12-06T03:33:56.237Z,8.78
2018-12-06T03:36:22.928Z,8.95
2018-12-06T03:38:49.614Z,8.95
2018-12-06T03:41:16.329Z,10.05
2018-12-06T03:43:43.016Z,8.20
2018-12-06T03:46:09.733Z,9.65
2018-12-06T03:48:36.416Z,10.38
2018-12-06T03:51:03.092Z,9.10
2018-12-06T03:53:29.813Z,9.43
2018-12-06T03:55:56.506Z,9.40
2018-12-06T03:58:23.200Z,10.03
2018-12-06T04:00:49.903Z,9.23
2018-12-06T04:03:16.624Z,9.10
2018-12-06T04:05:43.329Z,9.40
2018-12-06T04:08:10.026Z,9.05
2018-12-06T04:10:36.743Z,9.25
2018-12-06T04:13:03.424Z,10.50
2018-12-06T04:15:30.212Z,9.18
2018-12-06T04:17:56.896Z,9.38
2018-12-06T04:20:23.593Z,9.90
2018-12-06T04:22:50.300Z,9.95
2018-12-06T04:25:17.005Z,10.08
2018-12-06T04:27:43.717Z,10.35
2018-12-06T04:30:10.423Z,9.38
2018-12-06T04:32:37.127Z,10.00
2018-12-06T04:35:04.419Z,10.38
2018-12-06T04:37:31.111Z,9.73
2018-12-06T04:39:57.844Z,10.98
2018-12-06T04:42:24.666Z,10.63
2018-12-06T04:44:51.367Z,11.60
2018-12-06T04:47:18.143Z,10.35
2018-12-06T04:49:44.866Z,10.70
2018-12-06T04:52:11.560Z,10.78
2018-12-06T04:54:38.325Z,10.68
2018-12-06T04:57:05.104Z,11.22
2018-12-06T04:59:31.797Z,11.53
2018-12-06T05:01:58.525Z,11.25
2018-12-06T05:04:25.224Z,10.95
2018-12-06T05:06:51.950Z,10.70
2018-12-06T05:09:18.646Z,10.30
2018-12-06T05:11:45.356Z,10.15
2018-12-06T05:14:12.069Z,9.60
2018-12-06T05:16:38.755Z,10.80
2018-12-06T05:19:05.458Z,11.20
2018-12-06T05:21:32.181Z,10.30
2018-12-06T05:23:58.878Z,10.75
2018-12-06T05:26:25.570Z,10.95
2018-12-06T05:28:52.276Z,9.90
2018-12-06T05:31:18.968Z,8.98
2018-12-06T05:33:45.699Z,15.70
2018-12-06T05:36:12.397Z,10.80
2018-12-06T05:38:39.099Z,14.10
2018-12-06T05:41:05.804Z,11.00
2018-12-06T05:43:32.508Z,10.50
2018-12-06T05:45:59.225Z,10.45
2018-12-06T05:48:25.917Z,10.60
2018-12-06T05:50:52.623Z,12.75
2018-12-06T05:53:19.341Z,15.85
2018-12-06T05:55:46.049Z,10.40
2018-12-06T05:58:12.736Z,11.57
2018-12-06T06:00:39.421Z,11.03
2018-12-06T06:03:06.144Z,10.50
2018-12-06T06:05:32.842Z,10.98
2018-12-06T06:07:59.530Z,10.63
2018-12-06T06:10:26.253Z,10.50
2018-12-06T06:12:52.945Z,11.33
2018-12-06T06:15:19.648Z,10.90
2018-12-06T06:17:46.366Z,10.78
2018-12-06T06:20:13.096Z,10.23
2018-12-06T06:22:39.788Z,12.25
2018-12-06T06:25:06.488Z,10.93
2018-12-06T06:27:33.246Z,11.05
2018-12-06T06:29:59.948Z,11.80
2018-12-06T06:32:26.631Z,12.00
2018-12-06T06:34:53.358Z,11.38
2018-12-06T06:37:20.048Z,11.30
2018-12-06T06:39:46.761Z,11.48
2018-12-06T06:42:13.461Z,10.75
2018-12-06T06:44:40.156Z,11.78
2018-12-06T06:47:06.863Z,11.78
2018-12-06T06:49:33.554Z,12.58
2018-12-06T06:52:00.278Z,12.10
2018-12-06T06:54:26.968Z,11.93
2018-12-06T06:56:53.680Z,12.75
2018-12-06T06:59:26.041Z,12.63
2018-12-06T07:01:49.094Z,12.00
2018-12-06T07:04:15.901Z,13.25
2018-12-06T07:06:42.616Z,13.40
2018-12-06T07:09:09.337Z,12.93
2018-12-06T07:11:36.021Z,11.53
2018-12-06T07:14:03.312Z,14.20
2018-12-06T07:16:30.012Z,11.50
2018-12-06T07:18:56.734Z,12.90
2018-12-06T07:21:23.428Z,14.18
2018-12-06T07:23:50.116Z,13.58
2018-12-06T07:26:16.834Z,12.75
2018-12-06T07:28:43.546Z,13.35
2018-12-06T07:31:10.237Z,13.40
2018-12-06T07:33:36.952Z,12.95
2018-12-06T07:36:03.819Z,12.55
2018-12-06T07:38:30.509Z,12.35
2018-12-06T07:40:57.226Z,14.43
2018-12-06T07:43:23.921Z,13.20
2018-12-06T07:45:52.600Z,12.88
2018-12-06T07:48:19.325Z,12.75
2018-12-06T07:50:46.033Z,13.35
2018-12-06T07:53:12.725Z,12.00
2018-12-06T07:55:39.439Z,13.32
2018-12-06T07:58:06.143Z,13.30
2018-12-06T08:00:32.865Z,14.38
2018-12-06T08:02:59.551Z,14.07
2018-12-06T08:05:26.259Z,14.60
2018-12-06T08:07:52.972Z,15.08
2018-12-06T08:10:19.665Z,15.85
2018-12-06T08:12:46.399Z,13.95
2018-12-06T08:15:13.106Z,14.33
2018-12-06T08:17:39.806Z,15.35
2018-12-06T08:20:06.521Z,14.40
2018-12-06T08:22:33.212Z,14.85
2018-12-06T08:24:59.912Z,13.88
2018-12-06T08:27:26.628Z,11.18
2018-12-06T08:29:53.330Z,11.68
2018-12-06T08:32:20.078Z,14.75
2018-12-06T08:34:46.789Z,15.45
2018-12-06T08:37:13.491Z,16.85
2018-12-06T08:39:40.183Z,17.02
2018-12-06T08:42:06.923Z,17.45
2018-12-06T08:44:33.622Z,16.10
2018-12-06T08:47:00.324Z,17.80
2018-12-06T08:49:27.040Z,16.67
2018-12-06T08:51:53.740Z,16.65
2018-12-06T08:54:20.460Z,16.57
2018-12-06T08:56:47.155Z,16.73
2018-12-06T08:59:13.923Z,17.52
2018-12-06T09:01:40.657Z,17.00
2018-12-06T09:04:07.397Z,16.62
2018-12-06T09:06:34.123Z,18.00
2018-12-06T09:09:00.824Z,15.35
2018-12-06T09:11:27.512Z,16.37
2018-12-06T09:13:54.224Z,17.00
2018-12-06T09:16:20.958Z,15.35
2018-12-06T09:18:47.658Z,15.43
2018-12-06T09:21:14.373Z,16.48
2018-12-06T09:23:41.056Z,16.75
2018-12-06T09:26:07.752Z,14.73
2018-12-06T09:28:34.533Z,16.70
2018-12-06T09:31:01.386Z,16.30
2018-12-06T09:33:28.156Z,17.27
2018-12-06T09:35:54.876Z,14.40
2018-12-06T09:38:21.569Z,16.60
2018-12-06T09:40:48.273Z,14.93
2018-12-06T09:43:15.048Z,15.70
2018-12-06T09:45:41.831Z,16.75
2018-12-06T09:48:08.528Z,16.87
2018-12-06T09:50:35.236Z,16.65
2018-12-06T09:53:01.935Z,16.62
2018-12-06T09:55:28.647Z,13.43
2018-12-06T09:57:55.356Z,16.67
2018-12-06T10:00:22.068Z,16.75
2018-12-06T10:02:48.779Z,13.50
2018-12-06T10:05:15.489Z,14.75
2018-12-06T10:07:42.191Z,15.00
2018-12-06T10:10:08.925Z,15.58
2018-12-06T10:12:35.621Z,15.20
2018-12-06T10:15:02.316Z,15.72
2018-12-06T10:17:29.034Z,14.70
2018-12-06T10:19:55.718Z,14.45
2018-12-06T10:22:22.441Z,15.23
2018-12-06T10:24:49.137Z,15.43
2018-12-06T10:27:15.840Z,13.80
2018-12-06T10:29:42.543Z,13.68
2018-12-06T10:32:09.236Z,13.30
2018-12-06T10:34:35.944Z,12.13
2018-12-06T10:37:02.660Z,13.55
2018-12-06T10:39:29.369Z,14.53
2018-12-06T10:41:56.058Z,12.95
2018-12-06T10:44:24.751Z,13.38
2018-12-06T10:46:51.459Z,12.25
2018-12-06T10:49:18.190Z,13.00
2018-12-06T10:51:44.888Z,11.60
2018-12-06T10:54:11.590Z,11.40
2018-12-06T10:56:38.287Z,12.40
2018-12-06T10:59:05.044Z,14.15
2018-12-06T11:01:37.517Z,13.25
2018-12-06T11:04:04.223Z,11.03
2018-12-06T11:06:30.924Z,12.58
2018-12-06T11:08:57.611Z,12.10
2018-12-06T11:11:24.337Z,11.65
2018-12-06T11:13:51.033Z,13.18
2018-12-06T11:16:17.739Z,12.15
2018-12-06T11:18:44.440Z,11.28
2018-12-06T11:21:11.158Z,12.23
2018-12-06T11:23:37.878Z,11.80
2018-12-06T11:26:04.563Z,13.03
2018-12-06T11:28:31.277Z,10.88
2018-12-06T11:30:57.972Z,13.60
2018-12-06T11:33:24.986Z,13.18
2018-12-06T11:35:51.716Z,14.50
2018-12-06T11:38:18.657Z,13.48
2018-12-06T11:40:45.435Z,13.70
2018-12-06T11:43:12.281Z,11.50
2018-12-06T11:45:38.969Z,12.43
2018-12-06T11:48:05.683Z,20.48
2018-12-06T11:50:32.724Z,14.43
2018-12-06T11:52:59.448Z,13.62
2018-12-06T11:55:26.708Z,12.98
2018-12-06T11:57:54.201Z,13.35
2018-12-06T12:00:20.887Z,12.37
2018-12-06T12:02:47.571Z,13.38
2018-12-06T12:05:14.287Z,12.93
2018-12-06T12:07:40.985Z,12.65
2018-12-06T12:10:07.684Z,13.28
2018-12-06T12:12:34.401Z,11.55
2018-12-06T12:15:01.111Z,12.00
2018-12-06T12:17:27.831Z,13.65
2018-12-06T12:19:54.521Z,13.08
2018-12-06T12:22:21.253Z,14.80
2018-12-06T12:24:47.959Z,13.03
2018-12-06T12:27:14.661Z,16.25
2018-12-06T12:29:41.363Z,14.83
2018-12-06T12:32:08.083Z,13.58
2018-12-06T12:34:34.781Z,15.75
2018-12-06T12:37:01.470Z,18.73
2018-12-06T12:39:28.189Z,14.60
2018-12-06T12:41:54.880Z,17.32
2018-12-06T12:44:21.577Z,17.35
2018-12-06T12:46:48.301Z,15.13
2018-12-06T12:49:14.996Z,17.37
2018-12-06T12:51:41.713Z,18.85
2018-12-06T12:54:08.411Z,14.93
2018-12-06T12:56:35.133Z,15.38
2018-12-06T12:59:01.823Z,13.55
2018-12-06T13:01:28.520Z,16.75
2018-12-06T13:03:55.235Z,19.32
2018-12-06T13:06:21.935Z,17.90
2018-12-06T13:08:48.645Z,17.70
2018-12-06T13:11:15.340Z,27.90
2018-12-06T13:13:42.040Z,16.97
2018-12-06T13:16:08.775Z,18.07
2018-12-06T13:18:35.474Z,16.82
2018-12-06T13:21:02.175Z,15.30
2018-12-06T13:23:28.885Z,15.98
2018-12-06T13:25:55.611Z,15.90
2018-12-06T13:28:22.308Z,17.10
2018-12-06T13:30:49.026Z,16.20
2018-12-06T13:33:15.731Z,17.37
2018-12-06T13:35:42.437Z,16.87
2018-12-06T13:38:09.133Z,17.17
2018-12-06T13:40:35.824Z,14.83
2018-12-06T13:43:02.544Z,26.17
2018-12-06T13:45:29.234Z,15.63
2018-12-06T13:47:55.945Z,18.75
2018-12-06T13:50:22.640Z,23.92
2018-12-06T13:52:49.324Z,19.17
2018-12-06T13:55:16.039Z,19.20
2018-12-06T13:57:42.765Z,21.77
2018-12-06T14:00:09.472Z,35.50
2018-12-06T14:02:36.171Z,23.45
2018-12-06T14:05:02.864Z,23.30
2018-12-06T14:07:29.584Z,20.32
2018-12-06T14:09:56.273Z,20.50
2018-12-06T14:12:22.965Z,18.25
2018-12-06T14:14:50.100Z,17.20
2018-12-06T14:17:16.996Z,19.70
2018-12-06T14:19:43.720Z,21.20
2018-12-06T14:22:10.505Z,19.77
2018-12-06T14:24:37.198Z,19.60
2018-12-06T14:27:03.935Z,22.50
2018-12-06T14:29:30.624Z,17.85
2018-12-06T14:31:57.333Z,17.95
2018-12-06T14:34:24.125Z,17.90
2018-12-06T14:37:01.394Z,20.20
2018-12-06T14:39:19.529Z,18.67
2018-12-06T14:41:46.266Z,17.07
2018-12-06T14:44:12.968Z,17.12
2018-12-06T14:46:39.658Z,17.82
2018-12-06T14:49:06.385Z,17.50
2018-12-06T14:51:33.075Z,17.92
2018-12-06T14:53:59.755Z,19.25
2018-12-06T14:56:26.489Z,18.67
2018-12-06T14:58:53.207Z,18.17
2018-12-06T15:01:19.914Z,19.10
2018-12-06T15:03:46.609Z,18.73
2018-12-06T15:06:13.317Z,17.92
2018-12-06T15:08:40.021Z,19.17
2018-12-06T15:11:06.741Z,24.35
2018-12-06T15:13:33.434Z,17.07
2018-12-06T15:16:00.130Z,20.15
2018-12-06T15:18:26.842Z,20.88
2018-12-06T15:20:53.542Z,18.85
2018-12-06T15:23:20.245Z,17.45
2018-12-06T15:25:46.969Z,48.42
2018-12-06T15:28:13.692Z,19.40
2018-12-06T15:30:40.390Z,19.55
2018-12-06T15:33:07.077Z,18.42
2018-12-06T15:35:33.795Z,19.05
2018-12-06T15:38:00.494Z,17.20
2018-12-06T15:40:27.199Z,17.17
2018-12-06T15:42:54.126Z,17.92
2018-12-06T15:45:20.952Z,19.60
2018-12-06T15:47:47.661Z,19.37
2018-12-06T15:50:14.370Z,17.00
2018-12-06T15:52:41.087Z,20.40
2018-12-06T15:55:07.775Z,18.20
2018-12-06T15:57:34.478Z,17.15
2018-12-06T16:00:01.215Z,17.85
2018-12-06T16:02:27.981Z,18.40
2018-12-06T16:04:54.684Z,17.48
2018-12-06T16:07:21.406Z,19.02
2018-12-06T16:09:48.115Z,23.98
2018-12-06T16:12:14.804Z,21.50
2018-12-06T16:14:41.504Z,18.05
2018-12-06T16:17:08.232Z,18.52
2018-12-06T16:19:34.933Z,19.02
2018-12-06T16:22:01.631Z,17.20
2018-12-06T16:24:28.343Z,19.55
2018-12-06T16:26:55.046Z,18.42
2018-12-06T16:29:21.746Z,19.15
2018-12-06T16:31:48.478Z,20.80
2018-12-06T16:34:15.165Z,19.50
2018-12-06T16:36:41.856Z,18.23
2018-12-06T16:39:08.562Z,20.10
2018-12-06T16:41:35.261Z,18.60
2018-12-06T16:44:01.988Z,18.20
2018-12-06T16:46:28.680Z,19.20
2018-12-06T16:48:55.381Z,20.27
2018-12-06T16:51:22.097Z,16.97
2018-12-06T16:53:48.798Z,17.80
2018-12-06T16:56:15.492Z,18.00
2018-12-06T16:58:42.221Z,17.17
2018-12-06T17:01:08.921Z,17.57
2018-12-06T17:03:35.616Z,18.30
2018-12-06T17:06:02.337Z,21.68
2018-12-06T17:08:29.039Z,17.23
2018-12-06T17:10:55.764Z,16.75
2018-12-06T17:13:22.485Z,18.30
2018-12-06T17:15:49.221Z,17.00
2018-12-06T17:18:15.921Z,17.05
2018-12-06T17:20:42.628Z,17.35
2018-12-06T17:23:09.341Z,16.32
2018-12-06T17:25:36.027Z,16.77
2018-12-06T17:28:02.711Z,16.52
2018-12-06T17:30:29.428Z,15.60
2018-12-06T17:32:56.146Z,20.40
2018-12-06T17:35:22.836Z,17.15
2018-12-06T17:37:49.547Z,16.12
2018-12-06T17:40:16.242Z,16.20
2018-12-06T17:42:42.946Z,15.98
2018-12-06T17:45:09.663Z,15.63
2018-12-06T17:47:36.365Z,16.05
2018-12-06T17:50:03.969Z,17.85
2018-12-06T17:52:30.678Z,16.90
2018-12-06T17:54:57.411Z,15.60
2018-12-06T17:57:24.100Z,17.85
2018-12-06T17:59:50.802Z,16.90
2018-12-06T18:02:17.520Z,17.57
2018-12-06T18:04:44.216Z,16.27
2018-12-06T18:07:10.945Z,14.18
2018-12-06T18:09:37.641Z,16.97
2018-12-06T18:12:04.340Z,15.68
2018-12-06T18:14:31.070Z,17.75
2018-12-06T18:16:57.759Z,18.25
2018-12-06T18:19:24.446Z,17.10
2018-12-06T18:21:51.181Z,16.90
2018-12-06T18:24:18.751Z,17.70
2018-12-06T18:26:45.841Z,17.07
2018-12-06T18:29:12.546Z,19.27
2018-12-06T18:31:39.271Z,16.15
2018-12-06T18:34:05.974Z,17.92
2018-12-06T18:36:32.668Z,16.70
2018-12-06T18:38:59.385Z,15.88
2018-12-06T18:41:26.099Z,15.30
2018-12-06T18:43:52.793Z,16.23
2018-12-06T18:46:19.508Z,17.25
2018-12-06T18:48:46.207Z,16.70
2018-12-06T18:51:12.896Z,15.48
2018-12-06T18:53:39.890Z,15.32
2018-12-06T18:56:06.577Z,14.95
2018-12-06T18:58:34.712Z,16.70
2018-12-06T19:01:01.550Z,14.23
2018-12-06T19:03:28.244Z,14.45
2018-12-06T19:05:54.931Z,13.80
2018-12-06T19:08:21.641Z,14.25
2018-12-06T19:10:48.341Z,14.13
2018-12-06T19:13:15.065Z,15.00
2018-12-06T19:15:41.770Z,15.25
2018-12-06T19:18:08.468Z,15.48
2018-12-06T19:20:35.182Z,16.27
2018-12-06T19:23:01.885Z,14.50
2018-12-06T19:25:28.577Z,17.15
2018-12-06T19:27:55.299Z,16.67
2018-12-06T19:30:21.996Z,15.63
2018-12-06T19:32:48.702Z,15.60
2018-12-06T19:35:15.417Z,17.12
2018-12-06T19:37:42.684Z,16.20
2018-12-06T19:40:09.388Z,16.25
2018-12-06T19:42:38.914Z,16.90
2018-12-06T19:45:05.114Z,15.85
2018-12-06T19:47:31.815Z,15.70
2018-12-06T19:49:58.529Z,14.85
2018-12-06T19:52:25.302Z,15.68
2018-12-06T19:54:52.040Z,15.70
2018-12-06T19:57:18.742Z,14.93
2018-12-06T19:59:45.429Z,16.25
2018-12-06T20:02:12.150Z,14.15
2018-12-06T20:04:38.872Z,14.03
2018-12-06T20:07:05.580Z,15.25
2018-12-06T20:10:14.869Z,15.05
2018-12-06T20:12:41.570Z,14.25
2018-12-06T20:15:08.239Z,14.50
2018-12-06T20:17:34.933Z,14.10
2018-12-06T20:20:01.641Z,15.53
2018-12-06T20:22:28.334Z,14.80
2018-12-06T20:24:55.035Z,12.20
2018-12-06T20:27:21.712Z,14.40
2018-12-06T20:29:48.398Z,14.60
2018-12-06T20:32:15.155Z,12.15
2018-12-06T20:34:41.930Z,13.05
2018-12-06T20:37:08.631Z,14.65
2018-12-06T20:39:35.306Z,14.10
2018-12-06T20:42:01.999Z,13.38
2018-12-06T20:44:28.697Z,12.47
2018-12-06T20:46:55.378Z,13.10
2018-12-06T20:49:22.071Z,13.18
2018-12-06T20:51:48.785Z,13.38
2018-12-06T20:54:15.494Z,13.25
2018-12-06T20:56:42.192Z,11.90
2018-12-06T20:59:08.882Z,13.05
2018-12-06T21:01:35.663Z,14.20
2018-12-06T21:04:02.372Z,13.15
2018-12-06T21:06:29.055Z,13.85
2018-12-06T21:08:55.757Z,13.62
2018-12-06T21:11:22.453Z,13.62
2018-12-06T21:13:49.140Z,12.15
2018-12-06T21:16:15.842Z,14.07
2018-12-06T21:18:42.541Z,12.13
2018-12-06T21:21:09.255Z,12.35
2018-12-06T21:23:36.022Z,13.90
2018-12-06T21:26:02.740Z,14.07
2018-12-06T21:28:30.397Z,13.00
2018-12-06T21:30:57.106Z,12.33
2018-12-06T21:33:23.794Z,13.10
2018-12-06T21:35:50.500Z,14.33
2018-12-06T21:38:17.181Z,12.85
2018-12-06T21:40:43.871Z,13.78
2018-12-06T21:43:10.580Z,13.88
2018-12-06T21:45:37.266Z,13.15
2018-12-06T21:48:03.973Z,12.63
2018-12-06T21:50:30.664Z,13.58
2018-12-06T21:52:57.353Z,13.03
2018-12-06T21:55:24.062Z,12.20
2018-12-06T21:57:50.745Z,12.58
2018-12-06T22:00:17.437Z,10.28
2018-12-06T22:02:44.148Z,12.40
2018-12-06T22:05:10.917Z,11.97
2018-12-06T22:07:37.596Z,12.25
2018-12-06T22:10:04.810Z,12.47
2018-12-06T22:12:31.513Z,11.83
2018-12-06T22:14:58.286Z,12.00
2018-12-06T22:17:25.019Z,11.55
2018-12-06T22:19:51.803Z,12.47
2018-12-06T22:22:18.516Z,10.32
2018-12-06T22:24:45.196Z,11.33
2018-12-06T22:27:11.917Z,10.40
2018-12-06T22:29:38.610Z,10.65
2018-12-06T22:32:05.285Z,11.50
2018-12-06T22:34:31.976Z,9.70
2018-12-06T22:36:58.670Z,11.20
2018-12-06T22:39:25.381Z,12.05
2018-12-06T22:41:52.089Z,11.35
2018-12-06T22:44:18.860Z,11.28
2018-12-06T22:46:45.563Z,9.55
2018-12-06T22:49:12.248Z,10.23
2018-12-06T22:51:38.959Z,10.10
2018-12-06T22:54:05.641Z,9.83
2018-12-06T22:56:32.323Z,9.90
2018-12-06T22:58:59.034Z,11.05
2018-12-06T23:01:31.675Z,10.78
2018-12-06T23:03:58.385Z,11.05
2018-12-06T23:06:25.105Z,11.33
2018-12-06T23:08:51.784Z,11.83
2018-12-06T23:11:18.477Z,10.55
2018-12-06T23:13:45.187Z,10.58
2018-12-06T23:16:11.863Z,10.08
2018-12-06T23:18:38.552Z,10.05
2018-12-06T23:21:05.258Z,11.20
2018-12-06T23:23:31.962Z,10.13
2018-12-06T23:25:58.649Z,10.68
2018-12-06T23:28:25.376Z,10.35
2018-12-06T23:30:52.066Z,10.98
2018-12-06T23:33:18.771Z,10.98
2018-12-06T23:35:45.458Z,9.70
2018-12-06T23:38:12.149Z,8.85
2018-12-06T23:40:38.852Z,9.80
2018-12-06T23:43:05.539Z,9.15
2018-12-06T23:45:32.207Z,8.95
2018-12-06T23:47:58.915Z,8.93
2018-12-06T23:50:25.602Z,9.50
2018-12-06T23:52:52.279Z,8.83
2018-12-06T23:55:18.979Z,9.10
2018-12-06T23:57:45.645Z,8.40
